sensor_id;sensor_type;location;lat;lon;timestamp;P1;durP1;ratioP1;P2;durP2;ratioP2
55148;SDS011;49539;48.160;11.530;2023-04-03T00:00:38;10.77;;;6.85;;
55148;SDS011;49539;48.160;11.530;2023-04-03T00:03:03;11.77;;;7.57;;
55148;SDS011;49539;48.160;11.530;2023-04-03T00:05:29;13.13;;;7.68;;
55148;SDS011;49539;48.160;11.530;2023-04-03T00:07:54;16.23;;;7.55;;
55148;SDS011;49539;48.160;11.530;2023-04-03T00:10:19;14.48;;;8.38;;
55148;SDS011;49539;48.160;11.530;2023-04-03T00:12:45;12.77;;;7.18;;
55148;SDS011;49539;48.160;11.530;2023-04-03T00:15:10;15.90;;;6.93;;
55148;SDS011;49539;48.160;11.530;2023-04-03T00:17:35;11.48;;;6.70;;
55148;SDS011;49539;48.160;11.530;2023-04-03T00:20:02;17.42;;;7.10;;
55148;SDS011;49539;48.160;11.530;2023-04-03T00:22:28;15.55;;;6.95;;
55148;SDS011;49539;48.160;11.530;2023-04-03T00:24:53;11.90;;;6.57;;
55148;SDS011;49539;48.160;11.530;2023-04-03T00:27:19;13.45;;;6.97;;
55148;SDS011;49539;48.160;11.530;2023-04-03T00:29:44;11.10;;;6.82;;
55148;SDS011;49539;48.160;11.530;2023-04-03T00:32:10;11.60;;;6.97;;
55148;SDS011;49539;48.160;11.530;2023-04-03T00:34:35;13.07;;;7.45;;
55148;SDS011;49539;48.160;11.530;2023-04-03T00:37:00;9.48;;;6.20;;
55148;SDS011;49539;48.160;11.530;2023-04-03T00:39:25;13.20;;;7.00;;
55148;SDS011;49539;48.160;11.530;2023-04-03T00:41:51;12.68;;;7.22;;
55148;SDS011;49539;48.160;11.530;2023-04-03T00:46:44;11.15;;;6.60;;
55148;SDS011;49539;48.160;11.530;2023-04-03T00:49:10;11.10;;;6.57;;
55148;SDS011;49539;48.160;11.530;2023-04-03T00:51:35;12.93;;;6.03;;
55148;SDS011;49539;48.160;11.530;2023-04-03T00:54:01;11.05;;;6.28;;
55148;SDS011;49539;48.160;11.530;2023-04-03T00:56:27;9.80;;;6.30;;
55148;SDS011;49539;48.160;11.530;2023-04-03T00:59:06;12.45;;;6.50;;
55148;SDS011;49539;48.160;11.530;2023-04-03T01:01:33;12.80;;;7.00;;
55148;SDS011;49539;48.160;11.530;2023-04-03T01:03:59;11.25;;;6.45;;
55148;SDS011;49539;48.160;11.530;2023-04-03T01:06:26;15.00;;;7.50;;
55148;SDS011;49539;48.160;11.530;2023-04-03T01:08:52;11.15;;;5.93;;
55148;SDS011;49539;48.160;11.530;2023-04-03T01:11:18;11.07;;;6.22;;
55148;SDS011;49539;48.160;11.530;2023-04-03T01:13:43;11.13;;;6.47;;
55148;SDS011;49539;48.160;11.530;2023-04-03T01:16:10;10.63;;;6.05;;
55148;SDS011;49539;48.160;11.530;2023-04-03T01:18:36;12.02;;;7.30;;
55148;SDS011;49539;48.160;11.530;2023-04-03T01:23:30;15.23;;;6.50;;
55148;SDS011;49539;48.160;11.530;2023-04-03T01:25:57;11.02;;;6.95;;
55148;SDS011;49539;48.160;11.530;2023-04-03T01:28:30;8.57;;;5.63;;
55148;SDS011;49539;48.160;11.530;2023-04-03T01:31:05;10.20;;;6.22;;
55148;SDS011;49539;48.160;11.530;2023-04-03T01:33:35;11.93;;;6.03;;
55148;SDS011;49539;48.160;11.530;2023-04-03T01:36:01;10.60;;;5.90;;
55148;SDS011;49539;48.160;11.530;2023-04-03T01:38:26;9.18;;;5.75;;
55148;SDS011;49539;48.160;11.530;2023-04-03T01:40:52;11.35;;;6.20;;
55148;SDS011;49539;48.160;11.530;2023-04-03T01:43:17;14.13;;;6.97;;
55148;SDS011;49539;48.160;11.530;2023-04-03T01:45:43;10.73;;;6.88;;
55148;SDS011;49539;48.160;11.530;2023-04-03T01:48:08;11.75;;;6.22;;
55148;SDS011;49539;48.160;11.530;2023-04-03T01:50:33;11.90;;;6.50;;
55148;SDS011;49539;48.160;11.530;2023-04-03T01:52:59;9.23;;;5.90;;
55148;SDS011;49539;48.160;11.530;2023-04-03T01:55:24;11.55;;;6.22;;
55148;SDS011;49539;48.160;11.530;2023-04-03T01:57:49;10.77;;;6.18;;
55148;SDS011;49539;48.160;11.530;2023-04-03T02:00:15;10.10;;;5.97;;
55148;SDS011;49539;48.160;11.530;2023-04-03T02:02:40;9.55;;;5.93;;
55148;SDS011;49539;48.160;11.530;2023-04-03T02:05:06;10.50;;;6.55;;
55148;SDS011;49539;48.160;11.530;2023-04-03T02:07:33;9.85;;;6.00;;
55148;SDS011;49539;48.160;11.530;2023-04-03T02:09:59;10.25;;;6.07;;
55148;SDS011;49539;48.160;11.530;2023-04-03T02:12:24;13.88;;;6.72;;
55148;SDS011;49539;48.160;11.530;2023-04-03T02:14:49;9.18;;;5.72;;
55148;SDS011;49539;48.160;11.530;2023-04-03T02:17:15;11.07;;;6.07;;
55148;SDS011;49539;48.160;11.530;2023-04-03T02:19:40;10.60;;;6.75;;
55148;SDS011;49539;48.160;11.530;2023-04-03T02:22:05;9.10;;;5.50;;
55148;SDS011;49539;48.160;11.530;2023-04-03T02:24:31;8.88;;;5.40;;
55148;SDS011;49539;48.160;11.530;2023-04-03T02:26:57;10.05;;;5.95;;
55148;SDS011;49539;48.160;11.530;2023-04-03T02:29:22;10.60;;;5.53;;
55148;SDS011;49539;48.160;11.530;2023-04-03T02:31:48;9.65;;;5.78;;
55148;SDS011;49539;48.160;11.530;2023-04-03T02:34:13;11.32;;;6.47;;
55148;SDS011;49539;48.160;11.530;2023-04-03T02:36:38;8.15;;;5.25;;
55148;SDS011;49539;48.160;11.530;2023-04-03T02:39:06;11.82;;;5.88;;
55148;SDS011;49539;48.160;11.530;2023-04-03T02:41:31;10.38;;;5.97;;
55148;SDS011;49539;48.160;11.530;2023-04-03T02:44:03;9.73;;;5.10;;
55148;SDS011;49539;48.160;11.530;2023-04-03T02:46:28;8.27;;;5.18;;
55148;SDS011;49539;48.160;11.530;2023-04-03T02:48:54;9.32;;;5.30;;
55148;SDS011;49539;48.160;11.530;2023-04-03T02:51:19;10.27;;;5.05;;
55148;SDS011;49539;48.160;11.530;2023-04-03T02:53:44;9.32;;;5.43;;
55148;SDS011;49539;48.160;11.530;2023-04-03T02:56:10;6.30;;;4.28;;
55148;SDS011;49539;48.160;11.530;2023-04-03T02:58:35;10.18;;;4.78;;
55148;SDS011;49539;48.160;11.530;2023-04-03T03:01:00;9.82;;;5.55;;
55148;SDS011;49539;48.160;11.530;2023-04-03T03:03:26;12.40;;;4.78;;
55148;SDS011;49539;48.160;11.530;2023-04-03T03:06:00;7.85;;;4.20;;
55148;SDS011;49539;48.160;11.530;2023-04-03T03:10:50;8.00;;;4.80;;
55148;SDS011;49539;48.160;11.530;2023-04-03T03:13:17;8.75;;;3.90;;
55148;SDS011;49539;48.160;11.530;2023-04-03T03:15:42;7.97;;;4.55;;
55148;SDS011;49539;48.160;11.530;2023-04-03T03:18:07;8.85;;;4.43;;
55148;SDS011;49539;48.160;11.530;2023-04-03T03:20:32;9.30;;;4.47;;
55148;SDS011;49539;48.160;11.530;2023-04-03T03:22:58;7.68;;;4.25;;
55148;SDS011;49539;48.160;11.530;2023-04-03T03:25:23;8.48;;;4.93;;
55148;SDS011;49539;48.160;11.530;2023-04-03T03:27:48;8.13;;;4.32;;
55148;SDS011;49539;48.160;11.530;2023-04-03T03:30:13;7.85;;;4.05;;
55148;SDS011;49539;48.160;11.530;2023-04-03T03:32:39;6.63;;;4.22;;
55148;SDS011;49539;48.160;11.530;2023-04-03T03:35:04;10.95;;;4.40;;
55148;SDS011;49539;48.160;11.530;2023-04-03T03:37:30;8.55;;;4.32;;
55148;SDS011;49539;48.160;11.530;2023-04-03T03:39:55;9.40;;;3.85;;
55148;SDS011;49539;48.160;11.530;2023-04-03T03:42:20;6.97;;;3.97;;
55148;SDS011;49539;48.160;11.530;2023-04-03T03:44:46;8.48;;;4.38;;
55148;SDS011;49539;48.160;11.530;2023-04-03T03:47:11;9.75;;;5.38;;
55148;SDS011;49539;48.160;11.530;2023-04-03T03:49:36;7.68;;;4.53;;
55148;SDS011;49539;48.160;11.530;2023-04-03T03:52:02;7.68;;;4.25;;
55148;SDS011;49539;48.160;11.530;2023-04-03T03:54:27;7.47;;;4.22;;
55148;SDS011;49539;48.160;11.530;2023-04-03T03:56:52;8.40;;;4.65;;
55148;SDS011;49539;48.160;11.530;2023-04-03T03:59:18;7.82;;;4.68;;
55148;SDS011;49539;48.160;11.530;2023-04-03T04:01:43;9.23;;;4.47;;
55148;SDS011;49539;48.160;11.530;2023-04-03T04:04:08;7.80;;;4.05;;
55148;SDS011;49539;48.160;11.530;2023-04-03T04:06:34;7.07;;;4.25;;
55148;SDS011;49539;48.160;11.530;2023-04-03T04:08:59;10.10;;;4.93;;
55148;SDS011;49539;48.160;11.530;2023-04-03T04:11:24;7.50;;;3.60;;
55148;SDS011;49539;48.160;11.530;2023-04-03T04:13:50;6.47;;;4.00;;
55148;SDS011;49539;48.160;11.530;2023-04-03T04:16:15;7.10;;;3.92;;
55148;SDS011;49539;48.160;11.530;2023-04-03T04:18:40;5.57;;;3.60;;
55148;SDS011;49539;48.160;11.530;2023-04-03T04:21:06;9.43;;;4.65;;
55148;SDS011;49539;48.160;11.530;2023-04-03T04:23:31;7.45;;;4.13;;
55148;SDS011;49539;48.160;11.530;2023-04-03T04:25:56;7.10;;;3.90;;
55148;SDS011;49539;48.160;11.530;2023-04-03T04:28:21;8.50;;;4.03;;
55148;SDS011;49539;48.160;11.530;2023-04-03T04:30:47;7.28;;;4.10;;
55148;SDS011;49539;48.160;11.530;2023-04-03T04:33:12;6.65;;;3.72;;
55148;SDS011;49539;48.160;11.530;2023-04-03T04:35:39;8.00;;;4.40;;
55148;SDS011;49539;48.160;11.530;2023-04-03T04:38:04;8.15;;;4.13;;
55148;SDS011;49539;48.160;11.530;2023-04-03T04:40:29;6.18;;;3.70;;
55148;SDS011;49539;48.160;11.530;2023-04-03T04:42:55;7.40;;;4.07;;
55148;SDS011;49539;48.160;11.530;2023-04-03T04:45:20;8.23;;;3.75;;
55148;SDS011;49539;48.160;11.530;2023-04-03T04:47:45;6.47;;;3.88;;
55148;SDS011;49539;48.160;11.530;2023-04-03T04:50:11;9.02;;;4.78;;
55148;SDS011;49539;48.160;11.530;2023-04-03T04:52:37;7.68;;;4.20;;
55148;SDS011;49539;48.160;11.530;2023-04-03T04:55:02;7.38;;;4.25;;
55148;SDS011;49539;48.160;11.530;2023-04-03T04:57:27;7.50;;;4.10;;
55148;SDS011;49539;48.160;11.530;2023-04-03T04:59:53;6.00;;;3.83;;
55148;SDS011;49539;48.160;11.530;2023-04-03T05:02:18;9.48;;;4.50;;
55148;SDS011;49539;48.160;11.530;2023-04-03T05:04:43;10.43;;;4.10;;
55148;SDS011;49539;48.160;11.530;2023-04-03T05:07:09;9.00;;;4.25;;
55148;SDS011;49539;48.160;11.530;2023-04-03T05:09:34;7.28;;;4.28;;
55148;SDS011;49539;48.160;11.530;2023-04-03T05:12:00;6.30;;;4.03;;
55148;SDS011;49539;48.160;11.530;2023-04-03T05:14:25;9.65;;;4.38;;
55148;SDS011;49539;48.160;11.530;2023-04-03T05:16:50;10.27;;;4.60;;
55148;SDS011;49539;48.160;11.530;2023-04-03T05:19:19;6.68;;;4.13;;
55148;SDS011;49539;48.160;11.530;2023-04-03T05:21:44;7.68;;;3.65;;
55148;SDS011;49539;48.160;11.530;2023-04-03T05:24:10;7.53;;;4.07;;
55148;SDS011;49539;48.160;11.530;2023-04-03T05:26:35;7.68;;;4.70;;
55148;SDS011;49539;48.160;11.530;2023-04-03T05:29:00;6.38;;;4.03;;
55148;SDS011;49539;48.160;11.530;2023-04-03T05:31:26;6.35;;;3.88;;
55148;SDS011;49539;48.160;11.530;2023-04-03T05:33:54;7.40;;;4.22;;
55148;SDS011;49539;48.160;11.530;2023-04-03T05:36:20;7.30;;;4.43;;
55148;SDS011;49539;48.160;11.530;2023-04-03T05:38:45;6.05;;;3.83;;
55148;SDS011;49539;48.160;11.530;2023-04-03T05:41:10;8.45;;;4.40;;
55148;SDS011;49539;48.160;11.530;2023-04-03T05:43:36;7.55;;;3.83;;
55148;SDS011;49539;48.160;11.530;2023-04-03T05:46:17;8.23;;;4.30;;
55148;SDS011;49539;48.160;11.530;2023-04-03T05:48:43;9.48;;;4.30;;
55148;SDS011;49539;48.160;11.530;2023-04-03T05:51:13;6.30;;;4.15;;
55148;SDS011;49539;48.160;11.530;2023-04-03T05:53:39;9.02;;;4.93;;
55148;SDS011;49539;48.160;11.530;2023-04-03T05:56:05;8.13;;;4.70;;
55148;SDS011;49539;48.160;11.530;2023-04-03T05:58:30;9.82;;;4.55;;
55148;SDS011;49539;48.160;11.530;2023-04-03T06:00:55;6.03;;;3.80;;
55148;SDS011;49539;48.160;11.530;2023-04-03T06:03:22;6.68;;;3.97;;
55148;SDS011;49539;48.160;11.530;2023-04-03T06:05:47;8.00;;;3.92;;
55148;SDS011;49539;48.160;11.530;2023-04-03T06:08:13;7.85;;;3.85;;
55148;SDS011;49539;48.160;11.530;2023-04-03T06:10:39;7.43;;;4.50;;
55148;SDS011;49539;48.160;11.530;2023-04-03T06:13:05;8.77;;;4.82;;
55148;SDS011;49539;48.160;11.530;2023-04-03T06:15:31;6.65;;;4.32;;
55148;SDS011;49539;48.160;11.530;2023-04-03T06:17:56;5.88;;;3.90;;
55148;SDS011;49539;48.160;11.530;2023-04-03T06:20:21;8.45;;;3.95;;
55148;SDS011;49539;48.160;11.530;2023-04-03T06:22:47;6.70;;;4.10;;
55148;SDS011;49539;48.160;11.530;2023-04-03T06:25:12;8.80;;;5.00;;
55148;SDS011;49539;48.160;11.530;2023-04-03T06:27:38;7.13;;;4.63;;
55148;SDS011;49539;48.160;11.530;2023-04-03T06:30:03;8.75;;;4.03;;
55148;SDS011;49539;48.160;11.530;2023-04-03T06:32:29;7.13;;;4.38;;
55148;SDS011;49539;48.160;11.530;2023-04-03T06:34:54;8.82;;;4.78;;
55148;SDS011;49539;48.160;11.530;2023-04-03T06:37:21;9.35;;;4.63;;
55148;SDS011;49539;48.160;11.530;2023-04-03T06:39:47;7.55;;;4.43;;
55148;SDS011;49539;48.160;11.530;2023-04-03T06:42:12;8.57;;;4.25;;
55148;SDS011;49539;48.160;11.530;2023-04-03T06:44:38;8.90;;;4.93;;
55148;SDS011;49539;48.160;11.530;2023-04-03T06:47:03;9.38;;;4.15;;
55148;SDS011;49539;48.160;11.530;2023-04-03T06:49:30;8.05;;;4.53;;
55148;SDS011;49539;48.160;11.530;2023-04-03T06:51:55;8.73;;;3.97;;
55148;SDS011;49539;48.160;11.530;2023-04-03T06:54:21;7.43;;;4.43;;
55148;SDS011;49539;48.160;11.530;2023-04-03T06:56:46;7.57;;;4.07;;
55148;SDS011;49539;48.160;11.530;2023-04-03T06:59:12;11.27;;;4.28;;
55148;SDS011;49539;48.160;11.530;2023-04-03T07:01:38;6.97;;;3.75;;
55148;SDS011;49539;48.160;11.530;2023-04-03T07:04:03;7.18;;;4.25;;
55148;SDS011;49539;48.160;11.530;2023-04-03T07:06:29;8.57;;;4.38;;
55148;SDS011;49539;48.160;11.530;2023-04-03T07:08:56;6.90;;;4.18;;
55148;SDS011;49539;48.160;11.530;2023-04-03T07:11:21;7.35;;;3.95;;
55148;SDS011;49539;48.160;11.530;2023-04-03T07:13:47;9.07;;;4.32;;
55148;SDS011;49539;48.160;11.530;2023-04-03T07:16:13;8.43;;;4.55;;
55148;SDS011;49539;48.160;11.530;2023-04-03T07:18:38;8.52;;;4.30;;
55148;SDS011;49539;48.160;11.530;2023-04-03T07:21:03;9.27;;;4.15;;
55148;SDS011;49539;48.160;11.530;2023-04-03T07:23:29;7.30;;;4.38;;
55148;SDS011;49539;48.160;11.530;2023-04-03T07:25:54;10.85;;;4.10;;
55148;SDS011;49539;48.160;11.530;2023-04-03T07:28:19;7.82;;;3.60;;
55148;SDS011;49539;48.160;11.530;2023-04-03T07:30:49;7.22;;;4.35;;
55148;SDS011;49539;48.160;11.530;2023-04-03T07:33:16;7.57;;;4.25;;
55148;SDS011;49539;48.160;11.530;2023-04-03T07:35:41;9.05;;;4.82;;
55148;SDS011;49539;48.160;11.530;2023-04-03T07:38:07;6.95;;;3.97;;
55148;SDS011;49539;48.160;11.530;2023-04-03T07:40:32;7.72;;;4.25;;
55148;SDS011;49539;48.160;11.530;2023-04-03T07:42:58;7.78;;;4.38;;
55148;SDS011;49539;48.160;11.530;2023-04-03T07:45:23;11.02;;;5.70;;
55148;SDS011;49539;48.160;11.530;2023-04-03T07:47:49;8.63;;;4.78;;
55148;SDS011;49539;48.160;11.530;2023-04-03T07:50:14;9.48;;;4.93;;
55148;SDS011;49539;48.160;11.530;2023-04-03T07:52:40;8.98;;;4.95;;
55148;SDS011;49539;48.160;11.530;2023-04-03T07:55:06;7.38;;;4.38;;
55148;SDS011;49539;48.160;11.530;2023-04-03T07:57:31;8.13;;;4.95;;
55148;SDS011;49539;48.160;11.530;2023-04-03T07:59:57;10.90;;;5.03;;
55148;SDS011;49539;48.160;11.530;2023-04-03T08:02:22;14.25;;;5.85;;
55148;SDS011;49539;48.160;11.530;2023-04-03T08:04:47;6.38;;;4.20;;
55148;SDS011;49539;48.160;11.530;2023-04-03T08:07:12;9.15;;;4.88;;
55148;SDS011;49539;48.160;11.530;2023-04-03T08:09:38;10.50;;;4.80;;
55148;SDS011;49539;48.160;11.530;2023-04-03T08:12:03;9.88;;;5.20;;
55148;SDS011;49539;48.160;11.530;2023-04-03T08:14:30;8.82;;;4.95;;
55148;SDS011;49539;48.160;11.530;2023-04-03T08:16:55;8.98;;;5.10;;
55148;SDS011;49539;48.160;11.530;2023-04-03T08:19:20;10.65;;;5.10;;
55148;SDS011;49539;48.160;11.530;2023-04-03T08:21:46;10.32;;;5.10;;
55148;SDS011;49539;48.160;11.530;2023-04-03T08:24:11;8.98;;;5.18;;
55148;SDS011;49539;48.160;11.530;2023-04-03T08:26:37;8.85;;;5.30;;
55148;SDS011;49539;48.160;11.530;2023-04-03T08:29:02;9.18;;;5.45;;
55148;SDS011;49539;48.160;11.530;2023-04-03T08:31:28;8.45;;;5.10;;
55148;SDS011;49539;48.160;11.530;2023-04-03T08:33:53;12.38;;;5.35;;
55148;SDS011;49539;48.160;11.530;2023-04-03T08:36:20;8.98;;;4.82;;
55148;SDS011;49539;48.160;11.530;2023-04-03T08:38:47;9.63;;;5.88;;
55148;SDS011;49539;48.160;11.530;2023-04-03T08:46:04;9.68;;;5.18;;
55148;SDS011;49539;48.160;11.530;2023-04-03T08:48:31;8.05;;;4.65;;
55148;SDS011;49539;48.160;11.530;2023-04-03T08:51:03;10.20;;;5.10;;
55148;SDS011;49539;48.160;11.530;2023-04-03T08:53:31;8.88;;;5.05;;
55148;SDS011;49539;48.160;11.530;2023-04-03T08:55:57;9.27;;;4.82;;
55148;SDS011;49539;48.160;11.530;2023-04-03T08:58:29;10.68;;;4.88;;
55148;SDS011;49539;48.160;11.530;2023-04-03T09:00:57;8.10;;;4.40;;
55148;SDS011;49539;48.160;11.530;2023-04-03T09:03:23;8.80;;;5.10;;
55148;SDS011;49539;48.160;11.530;2023-04-03T09:08:30;9.80;;;5.60;;
55148;SDS011;49539;48.160;11.530;2023-04-03T09:15:56;7.78;;;4.72;;
55148;SDS011;49539;48.160;11.530;2023-04-03T09:18:32;8.57;;;5.40;;
55148;SDS011;49539;48.160;11.530;2023-04-03T09:21:06;9.57;;;5.60;;
55148;SDS011;49539;48.160;11.530;2023-04-03T09:23:45;10.82;;;5.03;;
55148;SDS011;49539;48.160;11.530;2023-04-03T09:26:13;9.57;;;4.97;;
55148;SDS011;49539;48.160;11.530;2023-04-03T09:28:41;10.82;;;5.13;;
55148;SDS011;49539;48.160;11.530;2023-04-03T09:33:44;11.35;;;5.22;;
55148;SDS011;49539;48.160;11.530;2023-04-03T09:36:10;9.27;;;5.05;;
55148;SDS011;49539;48.160;11.530;2023-04-03T09:38:36;7.32;;;4.60;;
55148;SDS011;49539;48.160;11.530;2023-04-03T09:41:05;8.82;;;4.60;;
55148;SDS011;49539;48.160;11.530;2023-04-03T09:43:32;7.53;;;4.40;;
55148;SDS011;49539;48.160;11.530;2023-04-03T09:48:52;11.20;;;4.82;;
55148;SDS011;49539;48.160;11.530;2023-04-03T09:51:20;9.73;;;4.68;;
55148;SDS011;49539;48.160;11.530;2023-04-03T09:53:49;11.60;;;5.32;;
55148;SDS011;49539;48.160;11.530;2023-04-03T09:58:46;7.93;;;4.78;;
55148;SDS011;49539;48.160;11.530;2023-04-03T10:01:32;8.82;;;5.38;;
55148;SDS011;49539;48.160;11.530;2023-04-03T10:04:02;8.35;;;4.90;;
55148;SDS011;49539;48.160;11.530;2023-04-03T10:06:29;8.30;;;4.68;;
55148;SDS011;49539;48.160;11.530;2023-04-03T10:08:59;8.57;;;4.80;;
55148;SDS011;49539;48.160;11.530;2023-04-03T10:11:25;9.85;;;5.40;;
55148;SDS011;49539;48.160;11.530;2023-04-03T10:13:58;11.20;;;5.03;;
55148;SDS011;49539;48.160;11.530;2023-04-03T10:16:48;7.07;;;4.43;;
55148;SDS011;49539;48.160;11.530;2023-04-03T10:19:28;7.85;;;5.00;;
55148;SDS011;49539;48.160;11.530;2023-04-03T10:22:07;8.40;;;4.82;;
55148;SDS011;49539;48.160;11.530;2023-04-03T10:24:41;8.20;;;5.00;;
55148;SDS011;49539;48.160;11.530;2023-04-03T10:27:53;10.32;;;5.18;;
55148;SDS011;49539;48.160;11.530;2023-04-03T10:30:09;9.30;;;5.80;;
55148;SDS011;49539;48.160;11.530;2023-04-03T10:45:19;8.35;;;4.25;;
55148;SDS011;49539;48.160;11.530;2023-04-03T11:00:22;6.75;;;3.10;;
55148;SDS011;49539;48.160;11.530;2023-04-03T11:02:51;7.30;;;3.78;;
55148;SDS011;49539;48.160;11.530;2023-04-03T11:05:18;5.72;;;3.35;;
55148;SDS011;49539;48.160;11.530;2023-04-03T11:07:47;9.25;;;3.35;;
55148;SDS011;49539;48.160;11.530;2023-04-03T11:10:30;5.47;;;3.22;;
55148;SDS011;49539;48.160;11.530;2023-04-03T11:13:08;6.28;;;3.63;;
55148;SDS011;49539;48.160;11.530;2023-04-03T11:15:36;5.78;;;3.08;;
55148;SDS011;49539;48.160;11.530;2023-04-03T11:20:57;8.52;;;3.55;;
55148;SDS011;49539;48.160;11.530;2023-04-03T11:23:28;6.10;;;3.17;;
55148;SDS011;49539;48.160;11.530;2023-04-03T11:25:57;8.95;;;3.85;;
55148;SDS011;49539;48.160;11.530;2023-04-03T11:28:23;7.03;;;3.33;;
55148;SDS011;49539;48.160;11.530;2023-04-03T11:36:09;8.00;;;3.58;;
55148;SDS011;49539;48.160;11.530;2023-04-03T11:38:36;5.80;;;3.10;;
55148;SDS011;49539;48.160;11.530;2023-04-03T11:41:04;6.68;;;3.58;;
55148;SDS011;49539;48.160;11.530;2023-04-03T11:43:32;6.90;;;3.63;;
55148;SDS011;49539;48.160;11.530;2023-04-03T11:45:58;7.50;;;3.20;;
55148;SDS011;49539;48.160;11.530;2023-04-03T11:53:37;7.50;;;3.22;;
55148;SDS011;49539;48.160;11.530;2023-04-03T11:59:36;8.13;;;2.33;;
55148;SDS011;49539;48.160;11.530;2023-04-03T12:04:10;5.13;;;2.60;;
55148;SDS011;49539;48.160;11.530;2023-04-03T12:09:04;3.67;;;1.90;;
55148;SDS011;49539;48.160;11.530;2023-04-03T12:11:46;5.18;;;2.10;;
55148;SDS011;49539;48.160;11.530;2023-04-03T12:14:15;3.63;;;2.15;;
55148;SDS011;49539;48.160;11.530;2023-04-03T12:34:39;6.20;;;1.98;;
55148;SDS011;49539;48.160;11.530;2023-04-03T12:37:16;2.75;;;1.50;;
55148;SDS011;49539;48.160;11.530;2023-04-03T12:39:48;10.07;;;2.30;;
55148;SDS011;49539;48.160;11.530;2023-04-03T12:42:30;3.40;;;1.98;;
55148;SDS011;49539;48.160;11.530;2023-04-03T12:45:13;4.32;;;2.00;;
55148;SDS011;49539;48.160;11.530;2023-04-03T12:47:41;6.65;;;2.15;;
55148;SDS011;49539;48.160;11.530;2023-04-03T12:50:24;2.08;;;1.48;;
55148;SDS011;49539;48.160;11.530;2023-04-03T12:53:13;2.60;;;1.80;;
55148;SDS011;49539;48.160;11.530;2023-04-03T12:55:37;2.53;;;1.52;;
55148;SDS011;49539;48.160;11.530;2023-04-03T13:01:04;3.55;;;1.67;;
55148;SDS011;49539;48.160;11.530;2023-04-03T13:03:34;4.25;;;1.95;;
55148;SDS011;49539;48.160;11.530;2023-04-03T13:06:00;2.22;;;1.63;;
55148;SDS011;49539;48.160;11.530;2023-04-03T13:08:27;2.80;;;1.58;;
55148;SDS011;49539;48.160;11.530;2023-04-03T13:10:54;4.10;;;2.30;;
55148;SDS011;49539;48.160;11.530;2023-04-03T13:13:20;3.65;;;1.90;;
55148;SDS011;49539;48.160;11.530;2023-04-03T13:15:48;3.80;;;1.90;;
55148;SDS011;49539;48.160;11.530;2023-04-03T13:18:31;3.17;;;1.92;;
55148;SDS011;49539;48.160;11.530;2023-04-03T13:20:58;2.53;;;1.48;;
55148;SDS011;49539;48.160;11.530;2023-04-03T13:23:25;4.40;;;2.88;;
55148;SDS011;49539;48.160;11.530;2023-04-03T13:25:51;6.80;;;2.10;;
55148;SDS011;49539;48.160;11.530;2023-04-03T13:28:19;3.83;;;2.13;;
55148;SDS011;49539;48.160;11.530;2023-04-03T13:33:29;5.13;;;1.88;;
55148;SDS011;49539;48.160;11.530;2023-04-03T13:36:04;3.55;;;1.67;;
55148;SDS011;49539;48.160;11.530;2023-04-03T13:38:30;3.45;;;1.77;;
55148;SDS011;49539;48.160;11.530;2023-04-03T13:41:04;5.13;;;2.03;;
55148;SDS011;49539;48.160;11.530;2023-04-03T13:43:31;4.63;;;2.15;;
55148;SDS011;49539;48.160;11.530;2023-04-03T13:45:59;3.33;;;1.83;;
55148;SDS011;49539;48.160;11.530;2023-04-03T13:48:25;4.45;;;1.85;;
55148;SDS011;49539;48.160;11.530;2023-04-03T13:51:37;8.07;;;1.92;;
55148;SDS011;49539;48.160;11.530;2023-04-03T13:53:41;4.78;;;1.92;;
55148;SDS011;49539;48.160;11.530;2023-04-03T13:56:08;3.45;;;2.05;;
55148;SDS011;49539;48.160;11.530;2023-04-03T13:58:34;3.38;;;1.90;;
55148;SDS011;49539;48.160;11.530;2023-04-03T14:01:11;5.07;;;1.90;;
55148;SDS011;49539;48.160;11.530;2023-04-03T14:06:08;6.40;;;2.20;;
55148;SDS011;49539;48.160;11.530;2023-04-03T14:08:35;6.55;;;2.17;;
55148;SDS011;49539;48.160;11.530;2023-04-03T14:11:00;3.53;;;1.70;;
55148;SDS011;49539;48.160;11.530;2023-04-03T14:13:26;3.75;;;1.92;;
55148;SDS011;49539;48.160;11.530;2023-04-03T14:15:51;2.65;;;1.60;;
55148;SDS011;49539;48.160;11.530;2023-04-03T14:18:17;5.55;;;2.08;;
55148;SDS011;49539;48.160;11.530;2023-04-03T14:20:43;4.78;;;1.75;;
55148;SDS011;49539;48.160;11.530;2023-04-03T14:23:09;1.60;;;1.13;;
55148;SDS011;49539;48.160;11.530;2023-04-03T14:25:35;5.57;;;1.80;;
55148;SDS011;49539;48.160;11.530;2023-04-03T14:28:00;4.43;;;1.80;;
55148;SDS011;49539;48.160;11.530;2023-04-03T14:30:30;4.82;;;1.70;;
55148;SDS011;49539;48.160;11.530;2023-04-03T14:32:56;3.63;;;1.65;;
55148;SDS011;49539;48.160;11.530;2023-04-03T14:35:23;1.95;;;1.40;;
55148;SDS011;49539;48.160;11.530;2023-04-03T14:37:48;2.53;;;1.55;;
55148;SDS011;49539;48.160;11.530;2023-04-03T14:40:18;2.20;;;1.42;;
55148;SDS011;49539;48.160;11.530;2023-04-03T14:42:44;2.28;;;1.20;;
55148;SDS011;49539;48.160;11.530;2023-04-03T14:45:10;2.45;;;1.30;;
55148;SDS011;49539;48.160;11.530;2023-04-03T14:47:41;3.70;;;1.27;;
55148;SDS011;49539;48.160;11.530;2023-04-03T14:50:07;2.60;;;1.38;;
55148;SDS011;49539;48.160;11.530;2023-04-03T14:52:34;2.97;;;1.45;;
55148;SDS011;49539;48.160;11.530;2023-04-03T14:55:00;4.80;;;1.67;;
55148;SDS011;49539;48.160;11.530;2023-04-03T14:57:27;3.63;;;1.15;;
55148;SDS011;49539;48.160;11.530;2023-04-03T14:59:52;2.63;;;1.23;;
55148;SDS011;49539;48.160;11.530;2023-04-03T15:02:31;4.03;;;1.65;;
55148;SDS011;49539;48.160;11.530;2023-04-03T15:04:57;1.65;;;1.17;;
55148;SDS011;49539;48.160;11.530;2023-04-03T15:07:23;3.22;;;1.50;;
55148;SDS011;49539;48.160;11.530;2023-04-03T15:09:49;2.88;;;1.52;;
55148;SDS011;49539;48.160;11.530;2023-04-03T15:12:14;1.50;;;1.10;;
55148;SDS011;49539;48.160;11.530;2023-04-03T15:14:40;3.33;;;1.38;;
55148;SDS011;49539;48.160;11.530;2023-04-03T15:17:05;3.05;;;1.40;;
55148;SDS011;49539;48.160;11.530;2023-04-03T15:19:35;4.97;;;1.50;;
55148;SDS011;49539;48.160;11.530;2023-04-03T15:22:02;3.63;;;1.45;;
55148;SDS011;49539;48.160;11.530;2023-04-03T15:24:27;2.83;;;1.30;;
55148;SDS011;49539;48.160;11.530;2023-04-03T15:26:52;2.78;;;1.30;;
55148;SDS011;49539;48.160;11.530;2023-04-03T15:29:17;5.20;;;1.52;;
55148;SDS011;49539;48.160;11.530;2023-04-03T15:31:43;3.67;;;1.60;;
55148;SDS011;49539;48.160;11.530;2023-04-03T15:34:08;2.08;;;1.20;;
55148;SDS011;49539;48.160;11.530;2023-04-03T15:36:33;2.58;;;1.50;;
55148;SDS011;49539;48.160;11.530;2023-04-03T15:38:59;2.03;;;1.47;;
55148;SDS011;49539;48.160;11.530;2023-04-03T15:41:24;2.03;;;1.10;;
55148;SDS011;49539;48.160;11.530;2023-04-03T15:43:49;3.78;;;1.63;;
55148;SDS011;49539;48.160;11.530;2023-04-03T15:46:15;3.13;;;1.27;;
55148;SDS011;49539;48.160;11.530;2023-04-03T15:48:40;2.78;;;1.20;;
55148;SDS011;49539;48.160;11.530;2023-04-03T15:51:05;2.28;;;1.20;;
55148;SDS011;49539;48.160;11.530;2023-04-03T15:53:31;2.88;;;1.50;;
55148;SDS011;49539;48.160;11.530;2023-04-03T15:55:56;2.33;;;1.48;;
55148;SDS011;49539;48.160;11.530;2023-04-03T15:58:22;2.17;;;1.37;;
55148;SDS011;49539;48.160;11.530;2023-04-03T16:00:47;2.35;;;1.30;;
55148;SDS011;49539;48.160;11.530;2023-04-03T16:03:15;4.55;;;1.40;;
55148;SDS011;49539;48.160;11.530;2023-04-03T16:05:42;2.83;;;1.23;;
55148;SDS011;49539;48.160;11.530;2023-04-03T16:08:08;2.47;;;1.00;;
55148;SDS011;49539;48.160;11.530;2023-04-03T16:10:34;4.28;;;1.80;;